Time;durP1;ratioP1;P1;durP2;ratioP2;P2;SDS_P1;SDS_P2;PMS_P1;PMS_P2;Temp;Humidity;BMP_temperature;BMP_pressure;BME280_temperature;BME280_humidity;BME280_pressure;Samples;Min_cycle;Max_cycle;Signal;HPM_P1;HPM_P2
2023/05/11 00:02:13;;;;;;;2.30;1.50;;;12.50;99.90;;;;;;6135086;23;20183;-70
2023/05/11 00:04:41;;;;;;;1.70;1.42;;;12.50;99.90;;;;;;6147448;23;20697;-70
2023/05/11 00:07:07;;;;;;;2.50;1.30;;;12.50;99.90;;;;;;6139110;23;20431;-70
2023/05/11 00:09:37;;;;;;;2.47;1.75;;;12.50;99.90;;;;;;6149230;23;20369;-70
2023/05/11 00:12:04;;;;;;;1.35;1.10;;;12.50;99.90;;;;;;6142117;23;20241;-70
2023/05/11 00:14:31;;;;;;;1.42;1.33;;;12.40;99.90;;;;;;6143728;23;20267;-69
2023/05/11 00:16:59;;;;;;;1.40;1.30;;;12.40;99.90;;;;;;6144720;23;20209;-70
2023/05/11 00:19:26;;;;;;;2.72;1.50;;;12.40;99.90;;;;;;6146549;23;20658;-69
2023/05/11 00:21:53;;;;;;;1.30;1.20;;;12.40;99.90;;;;;;6151175;23;20357;-70
2023/05/11 00:24:20;;;;;;;1.63;1.30;;;12.40;99.90;;;;;;6152932;23;20198;-70
2023/05/11 00:26:47;;;;;;;2.20;1.40;;;12.40;99.90;;;;;;6143428;23;20179;-70
2023/05/11 00:29:14;;;;;;;1.52;1.40;;;12.40;99.90;;;;;;6147528;23;20530;-69
2023/05/11 00:31:41;;;;;;;1.83;1.60;;;12.40;99.90;;;;;;6142756;23;20256;-69
2023/05/11 00:34:10;;;;;;;1.20;1.10;;;12.40;99.90;;;;;;6145732;23;20242;-70
2023/05/11 00:36:38;;;;;;;2.28;1.48;;;12.50;99.90;;;;;;6145184;23;20266;-70
2023/05/11 00:39:06;;;;;;;0.85;0.85;;;12.50;99.90;;;;;;6136276;23;20226;-70
2023/05/11 00:41:33;;;;;;;1.35;1.20;;;12.50;99.90;;;;;;6132781;23;20711;-69
2023/05/11 00:43:59;;;;;;;1.65;1.25;;;12.50;99.90;;;;;;6146875;23;20210;-70
2023/05/11 00:46:27;;;;;;;1.30;1.20;;;12.50;99.90;;;;;;6139862;23;20295;-70
2023/05/11 00:48:54;;;;;;;2.47;1.15;;;12.50;99.90;;;;;;6147723;23;20193;-70
2023/05/11 00:51:22;;;;;;;1.30;1.20;;;12.40;99.90;;;;;;6145420;23;20207;-69
2023/05/11 00:53:50;;;;;;;1.55;1.20;;;12.50;99.90;;;;;;6164850;23;20221;-70
2023/05/11 00:56:17;;;;;;;1.90;1.15;;;12.50;99.90;;;;;;6141530;23;20187;-70
2023/05/11 00:58:44;;;;;;;1.25;1.00;;;12.50;99.90;;;;;;6138276;23;20673;-70
2023/05/11 01:01:12;;;;;;;1.30;1.13;;;12.50;99.90;;;;;;6145829;23;20266;-69
2023/05/11 01:03:39;;;;;;;1.25;1.10;;;12.50;99.90;;;;;;6144493;23;20206;-70
2023/05/11 01:06:11;;;;;;;1.33;1.20;;;12.50;99.90;;;;;;6143495;23;20646;-70
2023/05/11 01:08:45;;;;;;;1.20;1.10;;;12.50;99.90;;;;;;6142170;23;20186;-69
2023/05/11 01:11:17;;;;;;;0.90;0.90;;;12.50;99.90;;;;;;6142926;23;20725;-70
2023/05/11 01:13:51;;;;;;;5.28;1.45;;;12.50;99.90;;;;;;6140868;23;20209;-70
2023/05/11 01:16:20;;;;;;;1.30;1.20;;;12.50;99.90;;;;;;6143008;23;20357;-69
2023/05/11 01:18:52;;;;;;;3.83;1.30;;;12.50;99.90;;;;;;6145941;23;20186;-69
2023/05/11 01:21:19;;;;;;;1.40;1.30;;;12.40;99.90;;;;;;6144901;23;20190;-69
2023/05/11 01:24:14;;;;;;;2.65;1.50;;;12.40;99.90;;;;;;6145793;23;20241;-69
2023/05/11 01:27:06;;;;;;;1.20;1.10;;;12.40;99.90;;;;;;6138084;23;20175;-70
2023/05/11 01:30:04;;;;;;;2.85;1.10;;;12.40;99.90;;;;;;6142373;23;20179;-70
2023/05/11 01:32:36;;;;;;;1.83;1.35;;;12.40;99.90;;;;;;6135225;23;20696;-69
2023/05/11 01:35:07;;;;;;;1.50;1.40;;;12.60;99.90;;;;;;6136072;23;20182;-70
2023/05/11 01:37:36;;;;;;;1.80;1.45;;;12.40;99.90;;;;;;6132154;23;20203;-69
2023/05/11 01:40:09;;;;;;;1.30;1.20;;;12.30;99.90;;;;;;6136335;23;20262;-69
2023/05/11 01:42:42;;;;;;;1.30;1.20;;;12.30;99.90;;;;;;6136627;23;20208;-69
2023/05/11 01:45:11;;;;;;;1.42;0.85;;;12.30;99.90;;;;;;6132610;23;21399;-69
2023/05/11 01:47:41;;;;;;;1.40;1.30;;;12.20;99.90;;;;;;6133692;23;20332;-69
2023/05/11 01:50:09;;;;;;;1.35;1.20;;;12.30;99.90;;;;;;6136215;23;20194;-69
2023/05/11 01:52:38;;;;;;;1.20;1.05;;;12.20;99.90;;;;;;6134460;23;20218;-69
2023/05/11 01:55:07;;;;;;;1.38;1.27;;;12.20;99.90;;;;;;6134540;23;20183;-69
2023/05/11 01:57:36;;;;;;;1.33;1.20;;;12.30;99.90;;;;;;6129798;23;20189;-69
2023/05/11 02:00:04;;;;;;;1.20;1.10;;;12.20;99.90;;;;;;6137694;23;20626;-69
2023/05/11 02:02:32;;;;;;;3.38;1.27;;;12.20;99.90;;;;;;6132310;23;20235;-70
2023/05/11 02:05:01;;;;;;;1.40;1.30;;;12.20;99.90;;;;;;6135527;23;20278;-69
2023/05/11 02:07:29;;;;;;;1.50;1.30;;;12.20;99.90;;;;;;6134628;23;20274;-70
2023/05/11 02:09:57;;;;;;;1.20;1.00;;;12.20;99.90;;;;;;6135145;23;20643;-69
2023/05/11 02:12:26;;;;;;;2.13;1.23;;;12.20;99.90;;;;;;6134482;23;20211;-70
2023/05/11 02:14:54;;;;;;;1.60;1.15;;;12.20;99.90;;;;;;6135376;23;20273;-70
2023/05/11 02:17:24;;;;;;;2.35;1.10;;;12.20;99.90;;;;;;6133451;23;20640;-69
2023/05/11 02:19:51;;;;;;;1.10;1.00;;;12.20;99.90;;;;;;6134822;23;20186;-70
2023/05/11 02:22:22;;;;;;;1.15;1.05;;;12.20;99.90;;;;;;6136662;23;20686;-69
2023/05/11 02:24:50;;;;;;;1.15;1.05;;;12.40;99.90;;;;;;6134523;23;20183;-69
2023/05/11 02:27:17;;;;;;;1.25;1.15;;;12.10;99.90;;;;;;6133931;23;20183;-69
2023/05/11 02:29:44;;;;;;;1.95;1.42;;;12.10;99.90;;;;;;6138048;23;20213;-70
2023/05/11 02:32:15;;;;;;;1.20;1.02;;;12.00;99.90;;;;;;6146827;23;20295;-70
2023/05/11 02:34:45;;;;;;;1.75;1.48;;;12.00;99.90;;;;;;6144786;23;20687;-70
2023/05/11 02:37:18;;;;;;;1.38;1.25;;;12.00;99.90;;;;;;6141058;23;20207;-69
2023/05/11 02:39:52;;;;;;;1.30;1.20;;;12.00;99.90;;;;;;6141131;23;20626;-70
2023/05/11 02:42:22;;;;;;;2.05;1.20;;;12.00;99.90;;;;;;6137131;23;20256;-69
2023/05/11 02:44:56;;;;;;;1.60;1.40;;;12.00;99.90;;;;;;6136829;23;20270;-69
2023/05/11 02:47:28;;;;;;;1.45;1.20;;;12.00;99.90;;;;;;6134543;23;20646;-69
2023/05/11 02:49:57;;;;;;;1.52;1.38;;;12.00;99.90;;;;;;6148181;23;20191;-70
2023/05/11 02:52:26;;;;;;;1.15;1.05;;;12.00;99.90;;;;;;6140732;23;20289;-69
2023/05/11 02:54:56;;;;;;;1.40;1.20;;;12.00;99.90;;;;;;6141139;23;20183;-69
2023/05/11 02:57:24;;;;;;;1.65;1.23;;;12.00;99.90;;;;;;6134643;23;20183;-69
2023/05/11 02:59:52;;;;;;;1.60;1.23;;;12.10;99.90;;;;;;6137389;23;20237;-69
2023/05/11 03:02:19;;;;;;;1.45;1.20;;;12.00;99.90;;;;;;6135443;23;20270;-69
2023/05/11 03:04:45;;;;;;;1.40;1.30;;;12.00;99.90;;;;;;6135461;23;20290;-69
2023/05/11 03:07:13;;;;;;;1.50;1.40;;;12.00;99.90;;;;;;6136451;23;20187;-69
2023/05/11 03:09:40;;;;;;;1.30;1.20;;;12.00;99.90;;;;;;6135082;23;20264;-69
2023/05/11 03:12:09;;;;;;;1.50;1.40;;;12.00;99.90;;;;;;6134668;23;20214;-69
2023/05/11 03:14:37;;;;;;;1.20;1.10;;;12.00;99.90;;;;;;6137063;23;20261;-69
2023/05/11 03:17:05;;;;;;;1.45;1.30;;;12.00;99.90;;;;;;6132629;23;20280;-69
2023/05/11 03:19:33;;;;;;;3.15;1.20;;;11.90;99.90;;;;;;6135631;23;20795;-69
2023/05/11 03:22:00;;;;;;;1.55;1.40;;;11.90;99.90;;;;;;6130748;23;20179;-69
2023/05/11 03:24:28;;;;;;;2.00;1.55;;;11.90;99.90;;;;;;6127532;23;20187;-69
2023/05/11 03:26:57;;;;;;;1.40;1.20;;;11.90;99.90;;;;;;6134711;23;20269;-69
2023/05/11 03:29:27;;;;;;;2.55;1.65;;;11.90;99.90;;;;;;6136128;23;20179;-70
2023/05/11 03:31:54;;;;;;;1.30;1.20;;;11.80;99.90;;;;;;6131750;23;20259;-76
2023/05/11 03:34:21;;;;;;;1.67;1.30;;;11.90;99.90;;;;;;6142560;23;20300;-77
2023/05/11 03:36:50;;;;;;;1.40;1.30;;;11.90;99.90;;;;;;6149087;23;20207;-78
2023/05/11 03:39:17;;;;;;;1.23;1.13;;;11.90;99.90;;;;;;6144932;23;20179;-76
2023/05/11 03:41:49;;;;;;;2.22;1.33;;;11.90;99.90;;;;;;6150321;23;20266;-77
2023/05/11 03:44:19;;;;;;;2.00;1.80;;;11.90;99.90;;;;;;6147013;23;20274;-77
2023/05/11 03:46:49;;;;;;;3.90;1.20;;;11.90;99.90;;;;;;6164029;23;20704;-77
2023/05/11 03:49:17;;;;;;;1.40;1.30;;;11.90;99.90;;;;;;6144136;23;20187;-75
2023/05/11 03:51:45;;;;;;;1.42;1.33;;;11.90;99.90;;;;;;6149867;23;20226;-75
2023/05/11 03:54:12;;;;;;;1.65;1.40;;;12.00;99.90;;;;;;6147017;23;20586;-75
2023/05/11 03:56:40;;;;;;;1.65;1.52;;;12.00;99.90;;;;;;6144497;23;20278;-75
2023/05/11 03:59:08;;;;;;;1.30;1.20;;;11.90;99.90;;;;;;6147835;23;20199;-75
2023/05/11 04:01:35;;;;;;;2.03;1.58;;;11.90;99.90;;;;;;6148708;23;20187;-75
2023/05/11 04:04:05;;;;;;;2.05;1.48;;;11.90;99.90;;;;;;6147725;23;20677;-75
2023/05/11 04:06:32;;;;;;;1.65;1.42;;;11.90;99.90;;;;;;6136604;23;20306;-75
2023/05/11 04:08:58;;;;;;;1.60;1.48;;;11.90;99.90;;;;;;6135856;23;20546;-77
2023/05/11 04:11:28;;;;;;;2.55;1.50;;;11.90;99.90;;;;;;6145315;23;20190;-76
2023/05/11 04:13:55;;;;;;;1.50;1.40;;;11.80;99.90;;;;;;6139532;23;20242;-76
2023/05/11 04:16:22;;;;;;;1.60;1.50;;;11.90;99.90;;;;;;6146995;23;20218;-79
2023/05/11 04:18:49;;;;;;;2.40;1.20;;;11.90;99.90;;;;;;6146211;23;20191;-77
2023/05/11 04:21:18;;;;;;;1.90;1.70;;;11.90;99.90;;;;;;6150592;23;20210;-77
2023/05/11 04:23:45;;;;;;;2.28;1.40;;;11.90;99.90;;;;;;6139187;23;20709;-77
2023/05/11 04:26:12;;;;;;;2.47;1.50;;;12.00;99.90;;;;;;6152890;23;20235;-77
2023/05/11 04:28:39;;;;;;;1.80;1.50;;;11.90;99.90;;;;;;6146057;23;20670;-77
2023/05/11 04:31:05;;;;;;;1.55;1.45;;;11.90;99.90;;;;;;6146306;23;20187;-76
2023/05/11 04:33:33;;;;;;;2.47;1.50;;;12.00;99.90;;;;;;6148732;23;20301;-71
2023/05/11 04:36:00;;;;;;;1.40;1.30;;;12.00;99.90;;;;;;6109935;23;20187;-71
2023/05/11 04:38:28;;;;;;;1.80;1.55;;;12.10;99.90;;;;;;6124929;23;20187;-71
2023/05/11 04:40:55;;;;;;;3.05;1.58;;;12.30;99.90;;;;;;6119379;23;20211;-82
2023/05/11 04:43:22;;;;;;;2.88;1.70;;;12.40;99.90;;;;;;6140279;23;20231;-84
2023/05/11 04:45:50;;;;;;;2.10;1.63;;;12.40;99.90;;;;;;6124866;23;20858;-85
2023/05/11 04:48:17;;;;;;;2.17;1.60;;;12.50;99.90;;;;;;6114563;23;20195;-76
2023/05/11 04:50:44;;;;;;;1.50;1.40;;;12.50;99.90;;;;;;6120290;23;20178;-75
2023/05/11 04:53:11;;;;;;;2.65;2.35;;;12.50;99.90;;;;;;6127253;23;20324;-76
2023/05/11 04:55:40;;;;;;;2.37;1.70;;;12.50;99.90;;;;;;6123677;23;20184;-76
2023/05/11 04:58:07;;;;;;;2.67;1.80;;;12.50;99.90;;;;;;6130080;23;20433;-76
2023/05/11 05:00:35;;;;;;;2.47;2.00;;;12.50;99.90;;;;;;6128903;23;20429;-76
2023/05/11 05:03:02;;;;;;;2.65;2.30;;;12.40;99.90;;;;;;6121295;23;20215;-76
2023/05/11 05:05:29;;;;;;;2.40;1.80;;;12.40;99.90;;;;;;6105492;23;20273;-75
2023/05/11 05:07:56;;;;;;;4.68;2.65;;;12.30;99.90;;;;;;6106894;23;20179;-77
2023/05/11 05:10:24;;;;;;;2.50;1.50;;;12.40;99.90;;;;;;6124535;23;20217;-77
2023/05/11 05:12:53;;;;;;;3.13;1.88;;;12.30;99.90;;;;;;6132358;23;20477;-76
2023/05/11 05:15:20;;;;;;;2.25;2.08;;;12.30;99.90;;;;;;6111311;23;20184;-76
2023/05/11 05:17:47;;;;;;;2.45;2.25;;;12.20;99.90;;;;;;6131445;23;20262;-76
2023/05/11 05:20:14;;;;;;;2.10;1.90;;;12.20;99.90;;;;;;6144369;23;20197;-76
2023/05/11 05:22:41;;;;;;;2.97;2.20;;;12.20;99.90;;;;;;6133546;23;20229;-76
2023/05/11 05:25:09;;;;;;;2.20;2.10;;;12.20;99.90;;;;;;6133403;23;20186;-76
2023/05/11 05:27:36;;;;;;;2.45;2.20;;;12.20;99.90;;;;;;6138288;23;20653;-76
2023/05/11 05:30:06;;;;;;;1.90;1.80;;;12.20;99.90;;;;;;6146923;23;20187;-77
2023/05/11 05:32:33;;;;;;;2.85;1.80;;;12.20;99.90;;;;;;6134107;23;20218;-76
2023/05/11 05:35:00;;;;;;;2.05;1.70;;;12.30;99.90;;;;;;6112763;23;20184;-76
2023/05/11 05:37:28;;;;;;;2.30;2.10;;;12.30;99.90;;;;;;6125708;23;20187;-76
2023/05/11 05:39:55;;;;;;;2.00;1.90;;;12.40;99.90;;;;;;6147652;23;20193;-76
2023/05/11 05:42:22;;;;;;;2.10;1.80;;;12.40;99.90;;;;;;6174806;23;20999;-77
2023/05/11 05:44:50;;;;;;;2.22;1.92;;;12.50;99.90;;;;;;6148227;23;20215;-76
2023/05/11 05:47:18;;;;;;;1.70;1.60;;;12.50;99.90;;;;;;6140008;23;20183;-77
2023/05/11 05:49:45;;;;;;;3.70;2.10;;;12.60;99.90;;;;;;6135328;23;20639;-76
2023/05/11 05:52:12;;;;;;;2.00;1.90;;;12.60;99.90;;;;;;6145176;23;20244;-76
2023/05/11 05:54:39;;;;;;;2.25;2.05;;;12.60;99.90;;;;;;6144804;23;20729;-76
2023/05/11 05:57:06;;;;;;;2.08;1.90;;;12.70;99.90;;;;;;6140867;23;20194;-76
2023/05/11 05:59:33;;;;;;;1.60;1.50;;;12.70;99.90;;;;;;6144415;23;20609;-76
2023/05/11 06:02:01;;;;;;;3.55;2.10;;;12.70;99.90;;;;;;6139958;23;20179;-77
2023/05/11 06:04:29;;;;;;;3.40;2.00;;;12.80;99.90;;;;;;6134878;23;20218;-76
2023/05/11 06:06:56;;;;;;;2.17;1.98;;;12.80;99.90;;;;;;6149428;23;20195;-76
2023/05/11 06:09:24;;;;;;;2.40;2.20;;;12.80;99.90;;;;;;6149475;23;20654;-76
2023/05/11 06:11:52;;;;;;;2.65;2.00;;;12.80;99.90;;;;;;6170771;23;20193;-76
2023/05/11 06:14:21;;;;;;;2.05;1.60;;;12.80;99.90;;;;;;6146388;23;20286;-76
2023/05/11 06:16:48;;;;;;;2.67;2.20;;;12.90;99.90;;;;;;6146335;23;20210;-77
2023/05/11 06:19:15;;;;;;;2.40;2.20;;;12.90;99.90;;;;;;6144635;23;20183;-75
2023/05/11 06:21:44;;;;;;;1.77;1.63;;;12.90;99.90;;;;;;6140278;23;20188;-74
2023/05/11 06:24:12;;;;;;;2.17;1.85;;;12.90;99.90;;;;;;6144866;23;20277;-74
2023/05/11 06:26:39;;;;;;;2.45;2.15;;;13.10;99.90;;;;;;6149435;23;20175;-77
2023/05/11 06:29:06;;;;;;;2.57;1.80;;;13.00;99.90;;;;;;6148354;23;20467;-77
2023/05/11 06:31:34;;;;;;;2.00;1.90;;;13.00;99.90;;;;;;6136935;23;20488;-76
2023/05/11 06:34:00;;;;;;;2.45;2.20;;;13.00;99.90;;;;;;6127404;23;20685;-76
2023/05/11 06:36:28;;;;;;;2.55;2.22;;;13.00;99.90;;;;;;6146976;23;20649;-76
2023/05/11 06:38:56;;;;;;;4.23;2.30;;;13.00;99.90;;;;;;6141322;23;20239;-77
2023/05/11 06:41:23;;;;;;;2.17;2.08;;;13.10;99.90;;;;;;6141291;23;21082;-76
2023/05/11 06:43:50;;;;;;;3.17;2.50;;;13.10;99.90;;;;;;6139231;23;20286;-77
2023/05/11 06:46:17;;;;;;;2.23;1.93;;;13.10;99.90;;;;;;6140904;23;20194;-77
2023/05/11 06:48:44;;;;;;;3.07;2.77;;;13.10;99.90;;;;;;6135129;23;20947;-77
2023/05/11 06:51:12;;;;;;;2.43;2.23;;;13.10;99.90;;;;;;6146314;23;20425;-76
2023/05/11 06:53:39;;;;;;;3.27;2.70;;;13.20;99.90;;;;;;6145192;23;20464;-77
2023/05/11 06:56:08;;;;;;;2.70;2.50;;;13.30;99.90;;;;;;6140394;23;20936;-76
2023/05/11 06:58:34;;;;;;;3.17;2.87;;;13.20;99.90;;;;;;6146691;23;20463;-77
2023/05/11 07:01:04;;;;;;;2.70;2.40;;;13.20;99.90;;;;;;6146559;23;20475;-76
2023/05/11 07:03:31;;;;;;;2.58;2.20;;;13.20;99.90;;;;;;6138596;23;21031;-77
2023/05/11 07:05:58;;;;;;;3.10;2.30;;;13.20;99.90;;;;;;6135429;23;20267;-74
2023/05/11 07:08:26;;;;;;;3.00;2.80;;;13.50;99.90;;;;;;6138542;23;20547;-75
2023/05/11 07:10:53;;;;;;;4.30;3.90;;;13.30;99.90;;;;;;6148515;23;20492;-75
2023/05/11 07:13:21;;;;;;;3.13;2.93;;;13.40;99.90;;;;;;6141277;23;20966;-75
2023/05/11 07:15:49;;;;;;;2.57;2.37;;;13.40;99.90;;;;;;6135515;23;20948;-74
2023/05/11 07:18:16;;;;;;;3.53;2.80;;;13.50;99.90;;;;;;6132340;23;20463;-75
2023/05/11 07:20:43;;;;;;;3.50;2.90;;;13.50;99.90;;;;;;6138299;23;20956;-75
2023/05/11 07:23:11;;;;;;;2.83;2.63;;;13.60;99.90;;;;;;6140571;23;20465;-75
2023/05/11 07:25:37;;;;;;;2.90;2.60;;;13.60;99.90;;;;;;6129972;23;20556;-74
2023/05/11 07:28:04;;;;;;;2.90;2.70;;;13.60;99.90;;;;;;6140814;23;20426;-75
2023/05/11 07:30:33;;;;;;;2.97;2.77;;;13.50;99.90;;;;;;6147236;23;20449;-75
2023/05/11 07:33:01;;;;;;;2.60;2.40;;;13.50;99.90;;;;;;6139922;23;20486;-74
2023/05/11 07:35:29;;;;;;;3.90;3.00;;;13.50;99.90;;;;;;6134305;23;20468;-74
2023/05/11 07:37:56;;;;;;;3.30;3.10;;;13.60;99.90;;;;;;6137199;23;20749;-74
2023/05/11 07:40:23;;;;;;;3.20;3.00;;;13.60;99.90;;;;;;6143265;23;20503;-74
2023/05/11 07:42:50;;;;;;;3.50;3.30;;;13.60;99.90;;;;;;6133352;23;20453;-74
2023/05/11 07:45:17;;;;;;;3.07;2.80;;;13.90;99.90;;;;;;6142517;23;20448;-77
2023/05/11 07:47:46;;;;;;;3.07;2.87;;;13.70;99.90;;;;;;6138368;23;20511;-74
2023/05/11 07:50:13;;;;;;;4.60;3.80;;;14.10;99.90;;;;;;6145225;23;20491;-76
2023/05/11 07:52:41;;;;;;;3.90;3.60;;;13.90;99.90;;;;;;6145262;23;20499;-77
2023/05/11 07:55:08;;;;;;;5.77;5.37;;;14.00;99.90;;;;;;6147887;23;20509;-76
2023/05/11 07:57:35;;;;;;;4.13;3.83;;;14.00;99.90;;;;;;6143157;23;20510;-75
2023/05/11 08:00:04;;;;;;;3.50;3.27;;;14.00;99.90;;;;;;6148919;23;20505;-75
2023/05/11 08:02:31;;;;;;;3.93;3.60;;;14.00;99.90;;;;;;6148116;23;20807;-76
2023/05/11 08:04:59;;;;;;;3.47;3.17;;;13.90;99.90;;;;;;6137388;23;20539;-76
2023/05/11 08:07:26;;;;;;;3.77;3.07;;;13.80;99.90;;;;;;6138070;23;21763;-76
2023/05/11 08:09:53;;;;;;;4.90;4.50;;;13.90;99.90;;;;;;6144503;23;20437;-76
2023/05/11 08:12:20;;;;;;;4.10;3.80;;;13.90;99.90;;;;;;6147929;23;20445;-75
2023/05/11 08:14:48;;;;;;;3.70;3.40;;;13.90;99.90;;;;;;6147118;23;20552;-76
2023/05/11 08:17:15;;;;;;;3.30;3.00;;;13.90;99.90;;;;;;6148763;23;20426;-76
2023/05/11 08:19:41;;;;;;;4.07;3.67;;;14.00;99.90;;;;;;6147280;23;20508;-77
2023/05/11 08:22:10;;;;;;;3.40;3.20;;;14.00;99.90;;;;;;6143129;23;20546;-76
2023/05/11 08:24:37;;;;;;;3.53;3.23;;;14.10;99.90;;;;;;6147021;23;20524;-77
2023/05/11 08:27:04;;;;;;;3.90;3.47;;;14.10;99.90;;;;;;6144657;23;20479;-76
2023/05/11 08:29:32;;;;;;;4.23;3.83;;;14.20;99.90;;;;;;6149348;23;20517;-77
2023/05/11 08:31:59;;;;;;;3.80;3.50;;;14.30;99.90;;;;;;6144656;23;20442;-77
2023/05/11 08:34:27;;;;;;;3.40;3.10;;;14.40;99.90;;;;;;6137639;23;20462;-77
2023/05/11 08:36:55;;;;;;;2.80;2.60;;;14.40;99.90;;;;;;6140072;23;20445;-77
2023/05/11 08:39:23;;;;;;;2.73;2.53;;;14.40;99.90;;;;;;6145171;23;20489;-77
2023/05/11 08:41:51;;;;;;;3.10;2.67;;;14.50;99.90;;;;;;6159040;23;20454;-77
2023/05/11 08:44:19;;;;;;;3.33;2.97;;;14.50;99.90;;;;;;6156808;23;20459;-77
2023/05/11 08:46:51;;;;;;;2.87;2.67;;;14.60;99.90;;;;;;6149032;23;20843;-77
2023/05/11 08:49:19;;;;;;;3.00;2.80;;;14.60;99.90;;;;;;6148667;23;20435;-77
2023/05/11 08:51:47;;;;;;;2.97;2.77;;;14.60;99.90;;;;;;6144916;23;20455;-77
2023/05/11 08:54:14;;;;;;;3.13;2.50;;;14.60;99.90;;;;;;6125620;23;20547;-76
2023/05/11 08:56:43;;;;;;;3.10;2.80;;;14.60;99.90;;;;;;6139247;23;20435;-77
2023/05/11 08:59:12;;;;;;;2.83;2.63;;;14.70;99.90;;;;;;6140064;23;20474;-77
2023/05/11 09:01:41;;;;;;;3.07;2.77;;;14.70;99.90;;;;;;6142571;23;20431;-77
2023/05/11 09:04:09;;;;;;;3.70;2.63;;;14.70;99.90;;;;;;6135849;23;20440;-76
2023/05/11 09:06:38;;;;;;;2.77;2.50;;;14.60;99.90;;;;;;6140982;23;20524;-77
2023/05/11 09:09:05;;;;;;;3.70;2.30;;;14.50;99.90;;;;;;6133901;23;20432;-76
2023/05/11 09:11:32;;;;;;;2.97;2.73;;;14.40;99.90;;;;;;6138775;23;20437;-77
2023/05/11 09:14:02;;;;;;;3.90;3.20;;;14.40;99.90;;;;;;6136108;23;20533;-77
2023/05/11 09:16:29;;;;;;;4.40;3.90;;;14.40;99.90;;;;;;6141402;23;20436;-77
2023/05/11 09:19:00;;;;;;;3.17;2.87;;;14.40;99.90;;;;;;6147089;23;20518;-77
2023/05/11 09:21:29;;;;;;;3.23;3.00;;;14.40;99.90;;;;;;6148629;23;20420;-77
2023/05/11 09:23:58;;;;;;;3.57;3.27;;;14.40;99.90;;;;;;6144976;23;20523;-77
2023/05/11 09:26:28;;;;;;;2.90;2.70;;;14.40;99.90;;;;;;6139749;23;20435;-76
2023/05/11 09:28:57;;;;;;;3.60;3.00;;;14.40;99.90;;;;;;6116451;23;20437;-77
2023/05/11 09:31:42;;;;;;;3.40;3.20;;;14.40;99.90;;;;;;6130396;23;20443;-76
2023/05/11 09:34:16;;;;;;;4.47;2.97;;;14.40;99.90;;;;;;6137124;23;20557;-77
2023/05/11 09:36:46;;;;;;;2.87;2.67;;;14.40;99.90;;;;;;6140877;23;20519;-77
2023/05/11 09:39:14;;;;;;;3.33;3.03;;;14.50;99.90;;;;;;6130594;23;20459;-77
2023/05/11 09:41:41;;;;;;;3.33;3.03;;;14.50;99.90;;;;;;6140207;23;20573;-77
2023/05/11 09:44:10;;;;;;;4.90;4.50;;;14.60;99.90;;;;;;6148471;23;20816;-77
2023/05/11 09:46:38;;;;;;;4.80;4.50;;;14.60;99.90;;;;;;6138570;23;20767;-77
2023/05/11 09:49:07;;;;;;;4.70;3.90;;;14.60;99.90;;;;;;6137495;23;20842;-76
2023/05/11 09:51:36;;;;;;;3.70;3.40;;;14.70;99.90;;;;;;6132740;23;20467;-78
2023/05/11 09:54:17;;;;;;;3.30;3.00;;;14.80;99.90;;;;;;6116850;23;20624;-77
2023/05/11 09:56:46;;;;;;;3.43;3.13;;;14.90;99.90;;;;;;6143633;23;20556;-77
2023/05/11 09:59:15;;;;;;;2.87;2.67;;;14.90;99.90;;;;;;6128834;23;20438;-77
2023/05/11 10:01:42;;;;;;;3.67;3.37;;;14.90;99.90;;;;;;6126252;23;20441;-78
2023/05/11 10:04:11;;;;;;;4.13;2.83;;;14.90;99.90;;;;;;6133094;23;20863;-78
2023/05/11 10:06:46;;;;;;;4.70;4.30;;;14.90;99.90;;;;;;6132958;23;20441;-78
2023/05/11 10:09:16;;;;;;;4.23;3.83;;;14.90;99.90;;;;;;6118800;23;20440;-78
2023/05/11 10:11:45;;;;;;;3.00;2.80;;;15.10;99.90;;;;;;6122042;23;22041;-78
2023/05/11 10:14:13;;;;;;;4.10;3.80;;;14.90;99.90;;;;;;6127766;23;20429;-77
2023/05/11 10:16:41;;;;;;;4.10;3.70;;;14.80;99.90;;;;;;6117907;23;21289;-78
2023/05/11 10:19:09;;;;;;;4.00;3.70;;;14.80;99.90;;;;;;6136499;23;20425;-78
2023/05/11 10:21:38;;;;;;;4.40;4.10;;;15.10;99.90;;;;;;6137741;23;20520;-78
2023/05/11 10:24:06;;;;;;;3.03;2.73;;;15.00;99.90;;;;;;6134839;23;20436;-78
2023/05/11 10:26:34;;;;;;;3.03;2.83;;;15.10;99.90;;;;;;6115832;23;20433;-78
2023/05/11 10:29:01;;;;;;;3.73;3.20;;;15.10;99.90;;;;;;6125800;23;20433;-78
2023/05/11 10:31:29;;;;;;;4.33;3.97;;;15.20;99.90;;;;;;6138143;23;20456;-78
2023/05/11 10:33:57;;;;;;;4.30;4.00;;;15.20;99.90;;;;;;6138207;23;20439;-77
2023/05/11 10:36:26;;;;;;;4.17;3.27;;;15.20;99.90;;;;;;6139115;23;20472;-78
2023/05/11 10:38:54;;;;;;;3.13;2.93;;;15.10;99.90;;;;;;6127554;23;20777;-78
2023/05/11 10:41:38;;;;;;;3.90;3.50;;;15.30;99.90;;;;;;6139725;23;20869;-78
2023/05/11 10:44:26;;;;;;;3.87;3.50;;;15.20;99.90;;;;;;6121788;23;23412;-78
2023/05/11 10:47:13;;;;;;;2.87;2.67;;;15.00;99.90;;;;;;6122636;23;20429;-79
2023/05/11 10:49:58;;;;;;;3.00;2.80;;;15.00;99.90;;;;;;6131824;23;20865;-82
2023/05/11 10:52:41;;;;;;;3.40;3.10;;;15.00;99.90;;;;;;6134543;23;20544;-79
2023/05/11 10:55:21;;;;;;;4.03;3.50;;;15.00;99.90;;;;;;6123229;23;21033;-79
2023/05/11 10:58:06;;;;;;;3.60;2.90;;;15.10;99.90;;;;;;6116795;23;21333;-79
2023/05/11 11:01:03;;;;;;;3.43;3.23;;;15.10;99.90;;;;;;6129010;23;20522;-79
2023/05/11 11:03:30;;;;;;;2.90;2.70;;;15.20;99.90;;;;;;6068828;23;21006;-80
2023/05/11 11:05:57;;;;;;;3.47;3.00;;;15.30;99.90;;;;;;6142383;23;20506;-79
2023/05/11 11:08:24;;;;;;;3.00;2.80;;;15.30;99.90;;;;;;6139936;23;20429;-79
2023/05/11 11:10:53;;;;;;;4.53;2.97;;;15.30;99.90;;;;;;6131358;23;20532;-79
2023/05/11 11:13:22;;;;;;;3.60;3.30;;;15.40;99.90;;;;;;6137617;23;20456;-78
2023/05/11 11:16:08;;;;;;;3.47;3.17;;;15.60;99.90;;;;;;6135636;23;20453;-79
2023/05/11 11:18:35;;;;;;;2.53;2.00;;;15.70;99.90;;;;;;6137716;23;20769;-79
2023/05/11 11:21:03;;;;;;;2.20;2.10;;;15.70;99.90;;;;;;6130071;23;20945;-79
2023/05/11 11:23:44;;;;;;;3.63;2.47;;;15.70;99.90;;;;;;6128898;23;20847;-79
2023/05/11 11:26:14;;;;;;;2.40;2.20;;;15.90;99.90;;;;;;6130639;23;20436;-78
2023/05/11 11:29:13;;;;;;;2.53;2.33;;;16.00;99.90;;;;;;6124280;23;20432;-79
2023/05/11 11:31:41;;;;;;;3.03;2.73;;;16.10;99.90;;;;;;6136981;23;20535;-79
2023/05/11 11:34:35;;;;;;;2.73;2.53;;;16.30;99.90;;;;;;6142361;23;20483;-79
2023/05/11 11:37:04;;;;;;;3.70;3.30;;;16.40;99.90;;;;;;6149086;23;20439;-79
2023/05/11 11:39:48;;;;;;;2.93;2.73;;;16.40;99.90;;;;;;6136214;23;20879;-78
2023/05/11 11:42:18;;;;;;;2.03;1.93;;;16.40;99.90;;;;;;6149383;23;20536;-79
2023/05/11 11:44:47;;;;;;;2.40;2.20;;;16.40;99.90;;;;;;6143084;23;20429;-79
2023/05/11 11:47:15;;;;;;;2.63;2.50;;;16.40;99.90;;;;;;6140865;23;20774;-78
2023/05/11 11:49:44;;;;;;;2.40;2.23;;;16.30;99.90;;;;;;6146911;23;20979;-79
2023/05/11 11:52:14;;;;;;;2.20;2.00;;;16.30;99.90;;;;;;6123404;23;20467;-78
2023/05/11 11:54:42;;;;;;;2.10;1.83;;;16.40;99.90;;;;;;6138662;23;20433;-79
2023/05/11 11:57:48;;;;;;;1.87;1.77;;;16.40;99.90;;;;;;6143841;23;20433;-79
2023/05/11 12:00:21;;;;;;;6.73;2.53;;;16.50;99.90;;;;;;6129805;23;20444;-79
2023/05/11 12:02:49;;;;;;;1.77;1.67;;;16.50;99.90;;;;;;6133803;23;20488;-78
2023/05/11 12:05:18;;;;;;;2.20;2.10;;;16.50;99.90;;;;;;6118561;23;20442;-79
2023/05/11 12:07:47;;;;;;;2.10;1.90;;;16.60;99.90;;;;;;6135838;23;20436;-79
2023/05/11 12:10:16;;;;;;;2.53;2.17;;;16.70;99.90;;;;;;6147114;23;20911;-79
2023/05/11 12:12:47;;;;;;;2.60;2.40;;;16.80;99.90;;;;;;6148676;23;20445;-79
2023/05/11 12:15:24;;;;;;;1.90;1.70;;;16.90;99.90;;;;;;6137265;23;20464;-78
2023/05/11 12:17:51;;;;;;;2.03;1.93;;;17.00;99.90;;;;;;6133578;23;20432;-78
2023/05/11 12:20:20;;;;;;;3.30;1.73;;;17.10;99.90;;;;;;6143031;23;20478;-78
2023/05/11 12:22:48;;;;;;;1.40;1.30;;;17.20;99.90;;;;;;6147732;23;20824;-78
2023/05/11 12:25:16;;;;;;;1.60;1.20;;;17.10;99.90;;;;;;6146385;23;20451;-78
2023/05/11 12:27:49;;;;;;;1.27;1.17;;;17.20;99.90;;;;;;6137846;23;20998;-75
2023/05/11 12:30:20;;;;;;;1.30;1.20;;;17.30;99.90;;;;;;6127339;23;20433;-74
2023/05/11 12:32:48;;;;;;;1.30;1.17;;;17.50;99.90;;;;;;6144711;23;20540;-74
2023/05/11 12:35:21;;;;;;;1.57;1.20;;;17.80;99.90;;;;;;6139533;23;20496;-74
2023/05/11 12:37:48;;;;;;;2.10;1.47;;;17.80;99.90;;;;;;6148346;23;20435;-74
2023/05/11 12:40:15;;;;;;;1.63;1.40;;;17.80;99.90;;;;;;6148262;23;20421;-74
2023/05/11 12:42:51;;;;;;;2.50;1.30;;;17.80;99.90;;;;;;6145359;23;20457;-74
2023/05/11 12:45:19;;;;;;;1.67;1.20;;;17.80;99.90;;;;;;6150455;23;20412;-74
2023/05/11 12:47:46;;;;;;;1.60;1.50;;;17.80;99.90;;;;;;6126055;23;20512;-74
2023/05/11 12:50:14;;;;;;;2.37;1.30;;;18.00;99.90;;;;;;6141824;23;20472;-74
2023/05/11 12:52:41;;;;;;;2.63;1.87;;;17.90;99.90;;;;;;6142775;23;20539;-74
2023/05/11 12:55:10;;;;;;;1.53;1.40;;;17.90;99.90;;;;;;6133818;23;20461;-74
2023/05/11 12:57:38;;;;;;;1.50;1.40;;;18.10;99.90;;;;;;6131070;23;20416;-74
2023/05/11 13:00:09;;;;;;;2.00;1.20;;;18.20;99.90;;;;;;6137659;23;20455;-74